Time;durP1;ratioP1;P1;durP2;ratioP2;P2;SDS_P1;SDS_P2;PMS_P1;PMS_P2;Temp;Humidity;BMP_temperature;BMP_pressure;BME280_temperature;BME280_humidity;BME280_pressure;Samples;Min_cycle;Max_cycle;Signal;HPM_P1;HPM_P2
2021/01/27 00:02:21;;;;;;;39.55;21.45;;;0.00;86.20;;;;;;5048473;28;20033;-81
2021/01/27 00:04:47;;;;;;;39.15;20.15;;;0.10;86.30;;;;;;5031885;28;20533;-81
2021/01/27 00:07:12;;;;;;;40.38;20.48;;;0.10;86.20;;;;;;5031821;28;20053;-81
2021/01/27 00:09:38;;;;;;;49.65;25.02;;;0.10;86.10;;;;;;5033345;28;20017;-81
2021/01/27 00:12:04;;;;;;;48.53;27.25;;;0.10;86.30;;;;;;5036744;28;20036;-81
2021/01/27 00:14:30;;;;;;;50.42;26.40;;;0.00;86.90;;;;;;5035295;28;20079;-81
2021/01/27 00:16:56;;;;;;;52.70;27.00;;;0.00;87.00;;;;;;5036533;28;20414;-81
2021/01/27 00:19:21;;;;;;;52.67;26.88;;;0.00;86.80;;;;;;5035307;28;20034;-81
2021/01/27 00:21:47;;;;;;;65.88;32.67;;;0.00;86.80;;;;;;5051787;28;20052;-81
2021/01/27 00:24:13;;;;;;;68.68;32.85;;;0.00;86.80;;;;;;5035080;28;20041;-81
2021/01/27 00:26:38;;;;;;;71.72;36.35;;;0.00;86.70;;;;;;5034943;28;20036;-81
2021/01/27 00:29:04;;;;;;;79.28;38.42;;;0.00;86.70;;;;;;5036496;28;20483;-81
2021/01/27 00:31:30;;;;;;;87.85;42.00;;;0.00;87.30;;;;;;5036512;28;20021;-81
2021/01/27 00:33:55;;;;;;;86.00;41.38;;;0.00;86.70;;;;;;5036471;28;20097;-81
2021/01/27 00:36:21;;;;;;;87.78;43.78;;;0.10;86.80;;;;;;5034764;28;20116;-81
2021/01/27 00:38:47;;;;;;;89.22;43.67;;;0.00;87.10;;;;;;5034890;28;20352;-81
2021/01/27 00:41:12;;;;;;;88.45;42.42;;;0.00;87.10;;;;;;5034843;28;20025;-81
2021/01/27 00:43:38;;;;;;;92.45;44.90;;;0.00;87.00;;;;;;5036237;28;20459;-81
2021/01/27 00:46:04;;;;;;;92.35;42.80;;;0.00;86.90;;;;;;5034720;28;20033;-81
2021/01/27 00:48:30;;;;;;;82.88;43.22;;;0.00;86.80;;;;;;5034599;28;20022;-81
2021/01/27 00:50:55;;;;;;;92.15;44.50;;;0.00;86.70;;;;;;5035804;28;20029;-81
2021/01/27 00:53:21;;;;;;;91.47;44.03;;;0.00;87.00;;;;;;5051125;28;20061;-81
2021/01/27 00:55:47;;;;;;;76.75;39.00;;;0.00;87.00;;;;;;5036084;28;20026;-81
2021/01/27 00:58:13;;;;;;;77.75;38.42;;;0.00;86.90;;;;;;5035712;28;20383;-81
2021/01/27 01:00:41;;;;;;;70.10;35.60;;;-0.10;86.80;;;;;;5034488;28;20473;-81
2021/01/27 01:03:08;;;;;;;74.90;37.35;;;0.00;86.80;;;;;;5034060;28;20029;-81
2021/01/27 01:05:36;;;;;;;72.53;36.20;;;0.00;86.70;;;;;;5035609;28;20025;-82
2021/01/27 01:08:03;;;;;;;76.38;38.25;;;0.00;86.70;;;;;;5035539;28;20114;-81
2021/01/27 01:10:30;;;;;;;80.25;42.63;;;0.00;86.70;;;;;;5034096;28;20029;-81
2021/01/27 01:12:57;;;;;;;72.35;38.45;;;-0.10;87.00;;;;;;5035425;28;20539;-81
2021/01/27 01:15:26;;;;;;;79.35;40.67;;;-0.10;87.10;;;;;;5034223;28;20029;-81
2021/01/27 01:17:51;;;;;;;83.57;43.08;;;-0.20;87.30;;;;;;5035440;28;20192;-81
2021/01/27 01:20:17;;;;;;;79.63;39.72;;;-0.20;87.10;;;;;;5034147;28;20060;-81
2021/01/27 01:22:48;;;;;;;79.15;39.03;;;-0.30;87.10;;;;;;5033875;28;20030;-81
2021/01/27 01:25:16;;;;;;;70.72;37.78;;;-0.30;87.30;;;;;;5035333;28;20040;-81
2021/01/27 01:27:43;;;;;;;65.65;35.20;;;-0.40;87.30;;;;;;5050773;28;20025;-81
2021/01/27 01:30:15;;;;;;;77.55;38.20;;;-0.40;87.30;;;;;;5050276;28;20045;-81
2021/01/27 01:32:41;;;;;;;69.45;35.72;;;-0.40;87.40;;;;;;5050645;28;20502;-81
2021/01/27 01:35:08;;;;;;;70.65;38.28;;;-0.40;87.40;;;;;;5035070;28;20021;-81
2021/01/27 01:37:35;;;;;;;78.93;40.00;;;-0.40;87.50;;;;;;5035150;28;20436;-81
2021/01/27 01:40:05;;;;;;;83.85;42.25;;;-0.40;87.50;;;;;;5050272;28;20483;-81
2021/01/27 01:42:31;;;;;;;87.80;43.35;;;-0.40;87.80;;;;;;5035057;28;20030;-81
2021/01/27 01:44:58;;;;;;;96.15;45.30;;;-0.40;87.70;;;;;;5050238;28;20042;-81
2021/01/27 01:47:25;;;;;;;92.30;45.50;;;-0.40;87.70;;;;;;5034911;28;20078;-81
2021/01/27 01:49:51;;;;;;;112.30;51.47;;;-0.40;87.70;;;;;;5034850;28;20030;-81
2021/01/27 01:52:17;;;;;;;120.38;57.05;;;-0.40;87.70;;;;;;5049883;28;20159;-81
2021/01/27 01:54:54;;;;;;;134.10;62.40;;;-0.40;87.70;;;;;;5049885;28;20112;-81
2021/01/27 01:57:24;;;;;;;128.80;61.92;;;-0.30;87.90;;;;;;5048101;28;20036;-81
2021/01/27 02:00:07;;;;;;;117.30;56.03;;;-0.30;87.70;;;;;;5049652;28;20029;-81
2021/01/27 02:02:35;;;;;;;145.95;65.20;;;-0.40;87.60;;;;;;5050223;28;20034;-81
2021/01/27 02:05:09;;;;;;;139.23;66.82;;;-0.40;87.50;;;;;;5049995;28;20034;-81
2021/01/27 02:07:35;;;;;;;127.28;60.35;;;-0.30;87.50;;;;;;5034128;28;20032;-81
2021/01/27 02:10:01;;;;;;;112.60;53.95;;;-0.30;87.50;;;;;;5049672;28;20748;-81
2021/01/27 02:12:30;;;;;;;117.80;53.10;;;-0.30;87.50;;;;;;5034327;28;20021;-81
2021/01/27 02:15:47;;;;;;;114.95;53.28;;;-0.30;87.40;;;;;;5034377;28;20105;-81
2021/01/27 02:18:25;;;;;;;93.80;46.78;;;-0.30;87.40;;;;;;5001176;28;20044;-81
2021/01/27 02:21:12;;;;;;;90.25;45.15;;;-0.30;87.40;;;;;;5034291;28;20152;-81
2021/01/27 02:24:10;;;;;;;57.08;29.25;;;-0.30;87.60;;;;;;5034194;28;20033;-81
2021/01/27 02:27:08;;;;;;;43.03;23.33;;;-0.40;86.40;;;;;;5049373;28;20033;-81
2021/01/27 02:29:58;;;;;;;44.50;22.90;;;-0.30;86.70;;;;;;5033882;28;20076;-81
2021/01/27 02:33:01;;;;;;;44.17;22.03;;;-0.30;87.00;;;;;;5033966;28;20473;-81
2021/01/27 02:35:38;;;;;;;34.25;19.00;;;-0.20;87.10;;;;;;5033934;28;20251;-81
2021/01/27 02:38:29;;;;;;;29.58;15.60;;;-0.10;87.10;;;;;;5049154;28;20033;-81
2021/01/27 02:41:22;;;;;;;28.30;16.85;;;-0.10;86.00;;;;;;5034172;28;20040;-81
2021/01/27 02:43:54;;;;;;;34.47;18.33;;;-0.10;86.00;;;;;;5034108;28;20021;-81
2021/01/27 02:46:39;;;;;;;52.10;25.67;;;-0.10;84.90;;;;;;5033694;28;20028;-81
2021/01/27 02:49:16;;;;;;;52.85;25.00;;;0.00;85.60;;;;;;5034087;28;20364;-82
2021/01/27 02:52:03;;;;;;;43.97;20.63;;;0.10;85.50;;;;;;5049099;28;20021;-82
2021/01/27 02:54:43;;;;;;;28.95;15.93;;;0.10;84.80;;;;;;5033797;28;20025;-82
2021/01/27 02:57:21;;;;;;;31.58;15.27;;;0.10;84.90;;;;;;5049145;28;20022;-82
2021/01/27 03:00:05;;;;;;;28.08;14.98;;;0.10;84.60;;;;;;5048990;28;20083;-81
2021/01/27 03:02:55;;;;;;;22.20;13.20;;;0.20;85.00;;;;;;5014041;28;20471;-81
2021/01/27 03:05:32;;;;;;;22.02;12.63;;;0.20;85.10;;;;;;5029318;28;20068;-81
2021/01/27 03:08:15;;;;;;;22.15;13.57;;;0.20;85.10;;;;;;5012925;28;20133;-81
2021/01/27 03:10:59;;;;;;;21.60;13.00;;;0.20;85.00;;;;;;5029064;28;20026;-81
2021/01/27 03:13:25;;;;;;;19.95;12.95;;;0.20;85.10;;;;;;5013789;28;20046;-81
2021/01/27 03:15:53;;;;;;;25.80;15.43;;;0.30;85.30;;;;;;5012588;28;20472;-81
2021/01/27 03:18:25;;;;;;;24.52;13.85;;;0.30;85.30;;;;;;5014156;28;20034;-86
2021/01/27 03:20:55;;;;;;;21.85;14.20;;;0.30;85.30;;;;;;5013355;28;20034;-86
2021/01/27 03:23:42;;;;;;;22.52;13.65;;;0.30;84.90;;;;;;5014100;28;20034;-86
2021/01/27 03:26:16;;;;;;;21.05;12.57;;;0.30;85.20;;;;;;5029760;28;20025;-85
2021/01/27 03:28:52;;;;;;;23.58;12.90;;;0.30;85.40;;;;;;5012500;28;20040;-86
2021/01/27 03:31:18;;;;;;;24.90;14.48;;;0.30;85.50;;;;;;4993429;28;20019;-85
2021/01/27 03:34:17;;;;;;;21.40;13.05;;;0.30;85.60;;;;;;4993507;28;20057;-85
2021/01/27 03:36:59;;;;;;;22.50;13.38;;;0.30;85.60;;;;;;4993518;28;20022;-86
2021/01/27 03:39:27;;;;;;;24.75;12.93;;;0.40;85.70;;;;;;4993557;28;20030;-85
2021/01/27 03:41:59;;;;;;;19.70;12.00;;;0.40;85.50;;;;;;4992720;28;20130;-86
2021/01/27 03:44:34;;;;;;;19.50;12.35;;;0.40;85.50;;;;;;4993888;28;20090;-86
2021/01/27 03:47:02;;;;;;;22.38;13.80;;;0.40;85.40;;;;;;4996597;28;20499;-85
2021/01/27 03:49:33;;;;;;;18.33;12.23;;;0.50;85.30;;;;;;4996438;28;20026;-85
2021/01/27 03:52:22;;;;;;;22.13;13.98;;;0.50;85.20;;;;;;5007024;28;20025;-86
2021/01/27 03:54:58;;;;;;;20.35;13.32;;;0.50;84.80;;;;;;5017514;28;20026;-85
2021/01/27 03:57:35;;;;;;;24.30;14.52;;;0.50;85.00;;;;;;5017666;28;20030;-86
2021/01/27 04:00:04;;;;;;;32.78;18.20;;;0.50;85.10;;;;;;5016073;28;20108;-85
2021/01/27 04:02:30;;;;;;;31.52;18.60;;;0.50;85.60;;;;;;4999474;28;20037;-86
2021/01/27 04:04:55;;;;;;;36.53;20.55;;;0.50;84.60;;;;;;5036916;28;20025;-86
2021/01/27 04:07:21;;;;;;;35.53;20.23;;;0.50;84.30;;;;;;5037118;28;20022;-85
2021/01/27 04:09:47;;;;;;;33.40;18.88;;;0.50;84.80;;;;;;5030889;28;20364;-86
2021/01/27 04:12:12;;;;;;;35.63;20.75;;;0.50;84.60;;;;;;5016064;28;20112;-85
2021/01/27 04:14:38;;;;;;;36.72;20.50;;;0.50;84.50;;;;;;4999704;28;20026;-85
2021/01/27 04:17:27;;;;;;;31.55;18.50;;;0.60;84.70;;;;;;4999821;28;20036;-85
2021/01/27 04:19:54;;;;;;;31.77;18.35;;;0.50;84.30;;;;;;5016967;28;20026;-84
2021/01/27 04:22:20;;;;;;;28.70;17.10;;;0.50;84.30;;;;;;4997729;28;20026;-85
2021/01/27 04:24:46;;;;;;;31.67;17.50;;;0.50;84.40;;;;;;5002186;28;20550;-85
2021/01/27 04:27:12;;;;;;;26.52;16.67;;;0.50;84.20;;;;;;5016962;28;20026;-85
2021/01/27 04:29:38;;;;;;;28.17;16.30;;;0.50;84.40;;;;;;5004025;28;20538;-85
2021/01/27 04:32:04;;;;;;;28.33;16.85;;;0.50;84.20;;;;;;5018434;28;20022;-81
2021/01/27 04:34:30;;;;;;;28.70;17.15;;;0.50;84.00;;;;;;5036565;28;20021;-81
2021/01/27 04:36:55;;;;;;;27.70;15.75;;;0.50;84.10;;;;;;5018358;28;20057;-82
2021/01/27 04:39:21;;;;;;;29.63;17.75;;;0.50;84.00;;;;;;5018276;28;20033;-82
2021/01/27 04:41:47;;;;;;;25.42;16.08;;;0.50;83.90;;;;;;5018080;28;20048;-81
2021/01/27 04:44:13;;;;;;;29.45;17.02;;;0.50;83.90;;;;;;5035774;28;20033;-81
2021/01/27 04:47:07;;;;;;;24.60;16.23;;;0.40;83.80;;;;;;5035733;28;20029;-81
2021/01/27 04:49:40;;;;;;;27.85;15.50;;;0.40;83.90;;;;;;5034731;28;20459;-82
2021/01/27 04:52:18;;;;;;;25.58;15.02;;;0.30;84.00;;;;;;5034495;28;20121;-82
2021/01/27 04:55:29;;;;;;;23.38;14.93;;;0.30;84.20;;;;;;5035579;28;20036;-81
2021/01/27 04:58:16;;;;;;;23.63;13.45;;;0.40;84.00;;;;;;5034487;28;20438;-81
2021/01/27 05:00:58;;;;;;;25.38;13.85;;;0.40;84.00;;;;;;5034412;28;20088;-81
2021/01/27 05:04:13;;;;;;;24.17;15.02;;;0.40;84.00;;;;;;5035720;28;20505;-81
2021/01/27 05:06:44;;;;;;;27.60;15.90;;;0.40;83.30;;;;;;5016351;28;20045;-82
2021/01/27 05:09:28;;;;;;;;;;;0.40;83.90;;;;;;5036511;28;20017;-85
2021/01/27 05:11:55;;;;;;;27.23;15.75;;;0.40;84.00;;;;;;5034603;28;19966;-84
2021/01/27 05:14:21;;;;;;;27.42;16.38;;;0.40;84.10;;;;;;5034645;28;20028;-85
2021/01/27 05:16:50;;;;;;;23.33;14.45;;;0.30;84.00;;;;;;5017690;28;20537;-86
2021/01/27 05:19:17;;;;;;;20.23;12.88;;;0.40;84.20;;;;;;5034626;28;20029;-84
2021/01/27 05:21:50;;;;;;;27.48;15.98;;;0.40;84.10;;;;;;5053873;28;20086;-86
2021/01/27 05:24:16;;;;;;;26.77;15.82;;;0.30;83.60;;;;;;5037545;28;20128;-85
2021/01/27 05:26:48;;;;;;;24.55;15.27;;;0.40;84.00;;;;;;5053855;28;20028;-83
2021/01/27 05:29:23;;;;;;;29.90;16.27;;;0.40;83.90;;;;;;5054792;28;20080;-83
2021/01/27 05:32:03;;;;;;;25.15;15.07;;;0.40;84.20;;;;;;5054861;28;20036;-85
2021/01/27 05:34:46;;;;;;;;;;;0.40;83.40;;;;;;5054796;28;20478;-88
2021/01/27 05:37:13;;;;;;;26.83;13.93;;;0.40;83.10;;;;;;5054127;28;19959;-86
2021/01/27 05:39:41;;;;;;;29.90;15.73;;;0.40;83.20;;;;;;5054184;28;20033;-87
2021/01/27 05:42:13;;;;;;;24.80;13.77;;;0.40;83.00;;;;;;5054260;28;20052;-86
2021/01/27 05:44:40;;;;;;;26.45;15.30;;;0.40;82.90;;;;;;5052453;28;20029;-85
2021/01/27 05:47:26;;;;;;;23.35;13.98;;;0.40;82.90;;;;;;5017637;28;20030;-86
2021/01/27 05:49:53;;;;;;;27.20;15.55;;;0.40;82.90;;;;;;5035271;28;20024;-84
2021/01/27 05:52:25;;;;;;;24.55;15.15;;;0.40;82.80;;;;;;5017501;28;20017;-86
2021/01/27 05:54:51;;;;;;;27.10;15.15;;;0.30;82.80;;;;;;5024685;28;20021;-87
2021/01/27 05:57:27;;;;;;;29.42;15.93;;;0.30;82.90;;;;;;5033982;28;20029;-88
2021/01/27 06:00:21;;;;;;;31.10;16.05;;;0.30;82.60;;;;;;5017546;28;20025;-84
2021/01/27 06:02:47;;;;;;;25.77;15.57;;;0.30;82.70;;;;;;5008642;28;20033;-88
2021/01/27 06:05:19;;;;;;;26.42;15.80;;;0.30;82.50;;;;;;5034988;28;20120;-87
2021/01/27 06:07:46;;;;;;;20.98;13.60;;;0.30;82.10;;;;;;5016566;28;20025;-86
2021/01/27 06:10:31;;;;;;;27.00;15.93;;;0.30;82.00;;;;;;5017231;28;20025;-86
2021/01/27 06:13:11;;;;;;;28.55;16.30;;;0.30;82.20;;;;;;5019684;28;20112;-87
2021/01/27 06:15:37;;;;;;;30.27;16.98;;;0.30;82.10;;;;;;5033951;28;20120;-87
2021/01/27 06:18:22;;;;;;;31.60;16.17;;;0.40;81.20;;;;;;5034879;28;20109;-86
2021/01/27 06:20:52;;;;;;;25.65;13.65;;;0.40;81.90;;;;;;5017147;28;20481;-85
2021/01/27 06:23:26;;;;;;;24.63;15.18;;;0.40;81.70;;;;;;5033579;28;20080;-85
2021/01/27 06:25:55;;;;;;;25.13;13.73;;;0.60;81.60;;;;;;5033421;28;20538;-84
2021/01/27 06:28:42;;;;;;;28.77;13.95;;;0.60;81.10;;;;;;5033302;28;20120;-84
2021/01/27 06:31:35;;;;;;;20.13;12.23;;;0.60;80.40;;;;;;5013607;28;20123;-84
2021/01/27 06:34:28;;;;;;;23.30;13.27;;;0.60;81.10;;;;;;4997018;28;20391;-84
2021/01/27 06:37:26;;;;;;;21.42;12.55;;;0.70;80.30;;;;;;5013520;28;20026;-84
2021/01/27 06:40:04;;;;;;;31.27;15.50;;;0.70;80.30;;;;;;4997030;28;20037;-84
2021/01/27 06:42:50;;;;;;;24.45;14.85;;;0.80;80.10;;;;;;5014559;28;20033;-84
2021/01/27 06:45:28;;;;;;;23.83;13.30;;;0.70;79.30;;;;;;4986475;28;20041;-85
2021/01/27 06:48:09;;;;;;;30.45;16.23;;;0.80;80.30;;;;;;5014347;28;20104;-84
2021/01/27 06:50:34;;;;;;;25.70;14.70;;;0.90;80.00;;;;;;5013290;28;20058;-84
2021/01/27 06:53:06;;;;;;;33.28;15.90;;;0.90;79.90;;;;;;5014593;28;20029;-84
2021/01/27 06:55:47;;;;;;;58.75;23.38;;;0.90;79.40;;;;;;5013110;28;20033;-84
2021/01/27 06:58:34;;;;;;;78.38;36.88;;;0.80;79.30;;;;;;5014253;28;20048;-84
2021/01/27 07:01:05;;;;;;;47.35;21.38;;;0.80;80.10;;;;;;5013155;28;20112;-84
2021/01/27 07:03:40;;;;;;;34.40;20.23;;;0.80;80.20;;;;;;5014640;28;20060;-84
2021/01/27 07:06:17;;;;;;;31.73;17.90;;;0.80;80.60;;;;;;5012990;28;20542;-85
2021/01/27 07:09:28;;;;;;;43.58;23.33;;;0.80;81.20;;;;;;5013148;28;20064;-84
2021/01/27 07:12:15;;;;;;;38.95;20.33;;;0.80;81.60;;;;;;4981959;28;20396;-84
2021/01/27 07:15:10;;;;;;;26.45;15.43;;;0.80;82.10;;;;;;5013156;28;20571;-84
2021/01/27 07:18:10;;;;;;;30.73;14.95;;;0.80;82.20;;;;;;5007578;28;20442;-85
2021/01/27 07:20:47;;;;;;;31.58;19.15;;;0.80;82.10;;;;;;5017601;28;20030;-85
2021/01/27 07:23:23;;;;;;;29.42;16.58;;;0.90;82.30;;;;;;5001034;28;20032;-85
2021/01/27 07:25:58;;;;;;;29.63;16.75;;;0.80;82.70;;;;;;5016837;28;20128;-85
2021/01/27 07:28:36;;;;;;;43.00;26.95;;;0.80;83.40;;;;;;5016842;28;20057;-85
2021/01/27 07:31:22;;;;;;;29.05;16.73;;;0.80;83.20;;;;;;5036874;28;20046;-86
2021/01/27 07:34:00;;;;;;;40.13;23.50;;;0.80;83.20;;;;;;5020062;28;20052;-86
2021/01/27 07:36:37;;;;;;;32.15;19.15;;;0.70;83.80;;;;;;5036764;28;20033;-85
2021/01/27 07:39:15;;;;;;;55.45;30.02;;;0.70;84.10;;;;;;5032814;28;20075;-85
2021/01/27 07:41:59;;;;;;;47.65;25.40;;;0.70;84.60;;;;;;5056266;28;20116;-85
2021/01/27 07:44:26;;;;;;;59.20;31.98;;;0.70;84.30;;;;;;5056481;28;20521;-85
2021/01/27 07:47:07;;;;;;;62.28;27.77;;;0.70;84.20;;;;;;5057587;28;20471;-85
2021/01/27 07:49:45;;;;;;;45.58;20.52;;;0.70;84.80;;;;;;5056368;28;20131;-85
2021/01/27 07:52:26;;;;;;;41.17;21.10;;;0.70;84.80;;;;;;5057380;28;20032;-85
2021/01/27 07:55:17;;;;;;;42.13;21.52;;;0.80;84.20;;;;;;5056566;28;20356;-85
2021/01/27 07:57:46;;;;;;;44.50;25.52;;;0.80;85.10;;;;;;5056692;28;20082;-86
2021/01/27 08:00:20;;;;;;;32.95;19.08;;;0.80;85.80;;;;;;5057429;28;20029;-86
2021/01/27 08:03:15;;;;;;;37.05;19.52;;;0.70;85.20;;;;;;5056124;28;20021;-86
2021/01/27 08:05:42;;;;;;;30.45;16.63;;;0.70;85.40;;;;;;5046465;28;20479;-86
2021/01/27 08:08:18;;;;;;;29.85;16.20;;;0.70;85.30;;;;;;5055741;28;20029;-87
2021/01/27 08:10:44;;;;;;;29.38;16.27;;;0.70;85.10;;;;;;5056095;28;20025;-86
2021/01/27 08:13:35;;;;;;;32.35;17.80;;;0.70;84.90;;;;;;5055563;28;20029;-86
2021/01/27 08:16:02;;;;;;;;;;;0.80;85.40;;;;;;5047760;28;20033;-87
2021/01/27 08:18:28;;;;;;;33.38;18.90;;;0.70;85.90;;;;;;5039207;28;19912;-87
2021/01/27 08:21:24;;;;;;;31.63;19.85;;;0.60;86.60;;;;;;5056081;28;20127;-86
2021/01/27 08:23:50;;;;;;;31.13;17.80;;;0.60;86.70;;;;;;5055656;28;20029;-87
2021/01/27 08:26:41;;;;;;;37.85;20.50;;;0.60;86.40;;;;;;5055896;28;20446;-87
2021/01/27 08:29:10;;;;;;;39.63;21.85;;;0.70;86.60;;;;;;5055599;28;20442;-87
2021/01/27 08:31:35;;;;;;;37.90;21.40;;;0.60;87.10;;;;;;5055038;28;20032;-87
2021/01/27 08:34:01;;;;;;;33.13;18.60;;;0.60;87.60;;;;;;5055577;28;20025;-87
2021/01/27 08:36:29;;;;;;;35.40;18.98;;;0.70;86.60;;;;;;5056756;28;20477;-87
2021/01/27 08:38:58;;;;;;;33.67;18.25;;;0.70;86.90;;;;;;5056713;28;20421;-87
2021/01/27 08:41:42;;;;;;;34.58;18.27;;;0.70;87.20;;;;;;5055943;28;20025;-87
2021/01/27 08:44:26;;;;;;;34.97;19.92;;;0.70;87.40;;;;;;5055421;28;20021;-87
2021/01/27 08:47:00;;;;;;;43.72;22.88;;;0.60;88.00;;;;;;5055669;28;20025;-87
2021/01/27 08:49:42;;;;;;;41.90;23.92;;;0.60;88.50;;;;;;5055507;28;20017;-87
2021/01/27 08:52:11;;;;;;;50.47;25.10;;;0.60;89.20;;;;;;5056485;28;20024;-87
2021/01/27 08:54:39;;;;;;;55.83;28.08;;;0.50;89.50;;;;;;5055294;28;20091;-87
2021/01/27 08:57:14;;;;;;;68.88;34.70;;;0.50;89.10;;;;;;5056396;28;20108;-88
2021/01/27 08:59:50;;;;;;;65.18;31.83;;;0.60;89.40;;;;;;5055351;28;20053;-88
2021/01/27 09:02:38;;;;;;;66.28;31.75;;;0.60;89.10;;;;;;5055171;28;20025;-87
2021/01/27 09:05:26;;;;;;;43.05;22.10;;;0.50;89.60;;;;;;5056464;28;20443;-88
2021/01/27 09:07:53;;;;;;;43.13;21.92;;;0.60;89.40;;;;;;5028200;28;20045;-88
2021/01/27 09:10:41;;;;;;;45.50;24.48;;;0.60;89.20;;;;;;5054828;28;20021;-88
2021/01/27 09:13:23;;;;;;;41.28;22.80;;;0.60;89.10;;;;;;5055325;28;20536;-87
2021/01/27 09:15:58;;;;;;;37.72;21.33;;;0.60;89.90;;;;;;5056130;28;20056;-87
2021/01/27 09:18:24;;;;;;;35.53;19.80;;;0.60;89.60;;;;;;5055014;28;20052;-88
2021/01/27 09:20:50;;;;;;;45.80;23.50;;;0.70;89.60;;;;;;5055925;28;20095;-88
2021/01/27 09:23:18;;;;;;;42.45;21.67;;;0.60;90.30;;;;;;5038248;28;20091;-89
2021/01/27 09:25:50;;;;;;;46.10;23.23;;;0.50;90.20;;;;;;5054771;28;20482;-89
2021/01/27 09:28:24;;;;;;;40.55;21.27;;;0.60;90.30;;;;;;5055625;28;20430;-89
2021/01/27 09:30:55;;;;;;;39.28;20.38;;;0.60;90.10;;;;;;5054423;28;20055;-89
2021/01/27 09:33:32;;;;;;;44.67;24.27;;;0.60;90.00;;;;;;5054723;28;20116;-89
2021/01/27 09:36:07;;;;;;;40.45;21.30;;;0.60;90.20;;;;;;5055257;28;20021;-89
2021/01/27 09:38:33;;;;;;;43.42;22.33;;;0.60;90.30;;;;;;5076268;28;20013;-87
2021/01/27 09:41:12;;;;;;;43.08;22.92;;;0.60;90.50;;;;;;5055849;28;20021;-88
2021/01/27 09:43:44;;;;;;;43.38;20.75;;;0.50;90.70;;;;;;5054396;28;20028;-90
2021/01/27 09:46:19;;;;;;;53.22;25.15;;;0.60;90.50;;;;;;5055737;28;20021;-89
2021/01/27 09:48:46;;;;;;;40.05;20.40;;;0.50;90.90;;;;;;5054599;28;20082;-89
2021/01/27 09:51:14;;;;;;;45.17;23.10;;;0.50;90.60;;;;;;5054395;28;20512;-89
2021/01/27 09:53:41;;;;;;;53.30;25.98;;;0.40;91.10;;;;;;5054049;28;20021;-90
2021/01/27 09:56:10;;;;;;;49.08;24.52;;;0.40;91.10;;;;;;5054196;28;20028;-90
2021/01/27 09:58:40;;;;;;;47.33;23.48;;;0.50;90.80;;;;;;5055208;28;20036;-91
2021/01/27 10:01:12;;;;;;;45.13;22.15;;;0.40;90.90;;;;;;5055080;28;20091;-90
2021/01/27 10:03:41;;;;;;;43.90;22.65;;;0.40;90.90;;;;;;5054056;28;20047;-90
2021/01/27 10:06:33;;;;;;;51.92;25.10;;;0.50;90.80;;;;;;5055028;28;20021;-90
2021/01/27 10:09:04;;;;;;;45.72;23.17;;;0.50;91.10;;;;;;5051885;28;20158;-90
2021/01/27 10:11:33;;;;;;;52.13;26.23;;;0.50;91.00;;;;;;5053898;28;20029;-90
2021/01/27 10:14:02;;;;;;;51.00;25.08;;;0.50;91.20;;;;;;5054936;28;20032;-90
2021/01/27 10:16:28;;;;;;;42.58;21.83;;;0.40;91.50;;;;;;5054058;28;20036;-91
2021/01/27 10:19:08;;;;;;;46.88;22.45;;;0.40;91.40;;;;;;5054827;28;20059;-91
2021/01/27 10:21:45;;;;;;;46.90;23.77;;;0.40;91.70;;;;;;5053908;28;20021;-91
2021/01/27 10:24:36;;;;;;;49.78;25.67;;;0.40;91.80;;;;;;5053913;28;20032;-91
2021/01/27 10:27:03;;;;;;;49.83;23.40;;;0.40;91.90;;;;;;5053890;28;20104;-91
2021/01/27 10:29:48;;;;;;;46.38;22.88;;;0.40;91.90;;;;;;5047671;28;20451;-91
2021/01/27 10:32:20;;;;;;;42.50;20.77;;;0.40;91.90;;;;;;5017018;28;20030;-92
2021/01/27 10:34:48;;;;;;;44.22;22.08;;;0.40;91.90;;;;;;5017283;28;20021;-91
2021/01/27 10:37:35;;;;;;;43.85;22.30;;;0.30;92.00;;;;;;5017256;28;20041;-91
2021/01/27 10:40:23;;;;;;;38.33;19.90;;;0.30;92.00;;;;;;5017228;28;20029;-91
2021/01/27 10:43:09;;;;;;;38.15;19.75;;;0.30;92.10;;;;;;5017443;28;20059;-91
2021/01/27 10:45:40;;;;;;;38.80;19.35;;;0.20;92.30;;;;;;5017647;28;20060;-91
2021/01/27 10:48:11;;;;;;;33.97;17.58;;;0.30;92.20;;;;;;5037127;28;20033;-90
2021/01/27 10:50:44;;;;;;;38.53;20.17;;;0.40;92.00;;;;;;5033698;28;20025;-91
2021/01/27 10:53:14;;;;;;;38.65;19.75;;;0.50;92.10;;;;;;5017689;28;20483;-90
2021/01/27 10:55:41;;;;;;;43.45;21.10;;;0.50;92.00;;;;;;5018637;28;20426;-91
2021/01/27 10:58:10;;;;;;;31.05;16.52;;;0.50;92.00;;;;;;5017419;28;20030;-91
2021/01/27 11:00:37;;;;;;;38.25;19.63;;;0.50;91.70;;;;;;5019560;28;20093;-90
2021/01/27 11:03:05;;;;;;;34.97;18.38;;;0.50;91.70;;;;;;5018618;28;20033;-91
2021/01/27 11:05:31;;;;;;;32.97;17.70;;;0.60;91.70;;;;;;5020746;28;20472;-89
2021/01/27 11:07:58;;;;;;;38.65;20.52;;;0.60;91.60;;;;;;5017524;28;20061;-91
2021/01/27 11:10:24;;;;;;;34.17;18.67;;;0.60;91.60;;;;;;5018628;28;20029;-91
2021/01/27 11:12:50;;;;;;;41.30;22.05;;;0.60;91.60;;;;;;5036467;28;20035;-90
2021/01/27 11:15:17;;;;;;;37.45;20.45;;;0.50;91.70;;;;;;5018473;28;20021;-90
2021/01/27 11:17:42;;;;;;;40.63;20.15;;;0.40;92.10;;;;;;5020308;28;20036;-91
2021/01/27 11:20:09;;;;;;;35.38;18.27;;;0.40;92.00;;;;;;5048019;28;20471;-91
2021/01/27 11:22:35;;;;;;;44.92;22.27;;;0.40;92.00;;;;;;5000708;28;20084;-91
2021/01/27 11:25:01;;;;;;;40.53;19.55;;;0.50;92.10;;;;;;5017096;28;20471;-91
2021/01/27 11:27:27;;;;;;;43.28;20.23;;;0.40;91.90;;;;;;5016749;28;20048;-91
2021/01/27 11:29:52;;;;;;;47.13;23.70;;;0.40;92.20;;;;;;5026573;28;20045;-92
2021/01/27 11:32:18;;;;;;;43.72;22.27;;;0.40;92.10;;;;;;5036177;28;20025;-91
2021/01/27 11:34:44;;;;;;;41.28;21.73;;;0.40;92.10;;;;;;5036537;28;20505;-91
2021/01/27 11:37:11;;;;;;;41.90;20.33;;;0.40;92.20;;;;;;5036591;28;20036;-91
2021/01/27 11:39:37;;;;;;;39.95;20.67;;;0.40;92.10;;;;;;5054079;28;20024;-92
2021/01/27 11:42:03;;;;;;;43.03;20.52;;;0.50;92.00;;;;;;5053191;28;20359;-91
2021/01/27 11:44:28;;;;;;;39.85;20.65;;;0.50;91.90;;;;;;5054564;28;20032;-92
2021/01/27 11:46:54;;;;;;;32.63;17.27;;;0.50;91.80;;;;;;5052837;28;20037;-91
2021/01/27 11:49:20;;;;;;;36.95;19.48;;;0.60;91.80;;;;;;5036470;28;20030;-87
2021/01/27 11:51:45;;;;;;;40.20;19.90;;;0.60;91.90;;;;;;5053764;28;20391;-92
2021/01/27 11:54:11;;;;;;;38.03;18.25;;;0.50;91.90;;;;;;5053949;28;20486;-92
2021/01/27 11:56:37;;;;;;;35.67;18.10;;;0.50;92.00;;;;;;5036061;28;20036;-91
2021/01/27 11:59:03;;;;;;;44.95;21.42;;;0.50;92.20;;;;;;5036348;28;20112;-90
2021/01/27 12:01:30;;;;;;;37.13;18.33;;;0.50;92.10;;;;;;5037216;28;20025;-90
2021/01/27 12:03:55;;;;;;;38.50;20.65;;;0.50;92.10;;;;;;5037195;28;20021;-92
2021/01/27 12:06:21;;;;;;;40.85;19.10;;;0.50;92.00;;;;;;5054829;28;20079;-92
2021/01/27 12:08:47;;;;;;;35.15;17.70;;;0.50;92.10;;;;;;5040347;28;20466;-91
2021/01/27 12:11:13;;;;;;;36.83;18.52;;;0.50;92.10;;;;;;5057998;28;20082;-90
2021/01/27 12:13:39;;;;;;;36.78;18.80;;;0.40;92.20;;;;;;5056439;28;20364;-89
2021/01/27 12:16:05;;;;;;;35.33;18.08;;;0.40;92.30;;;;;;5040676;28;20021;-96
2021/01/27 12:18:31;;;;;;;38.08;19.55;;;0.40;92.20;;;;;;5058194;28;20021;-92
2021/01/27 12:20:57;;;;;;;42.13;20.70;;;0.40;92.20;;;;;;5040747;28;20021;-93
2021/01/27 12:23:22;;;;;;;38.50;19.17;;;0.30;92.60;;;;;;5060241;28;20025;-91
2021/01/27 12:25:48;;;;;;;35.35;18.15;;;0.30;92.50;;;;;;5057529;28;20074;-93
2021/01/27 12:28:14;;;;;;;32.67;16.45;;;0.30;92.70;;;;;;5040729;28;20029;-92
2021/01/27 12:30:40;;;;;;;34.75;18.58;;;0.30;92.60;;;;;;5061827;28;20051;-88
2021/01/27 12:33:09;;;;;;;33.83;17.73;;;0.40;92.50;;;;;;5043301;28;20032;-91
2021/01/27 12:35:35;;;;;;;31.85;16.58;;;0.40;92.40;;;;;;5040905;28;20040;-87
2021/01/27 12:38:02;;;;;;;42.00;20.38;;;0.40;92.40;;;;;;5040255;28;20029;-93
2021/01/27 12:40:28;;;;;;;37.72;18.67;;;0.40;92.40;;;;;;5040699;28;20079;-93
2021/01/27 12:42:54;;;;;;;39.05;20.00;;;0.40;92.30;;;;;;5040268;28;20036;-93
2021/01/27 12:45:24;;;;;;;42.50;21.15;;;0.30;92.40;;;;;;5039379;28;20029;-94
2021/01/27 12:47:50;;;;;;;42.05;20.63;;;0.20;92.60;;;;;;5039005;28;20033;-93
2021/01/27 12:50:16;;;;;;;39.83;20.27;;;0.20;92.70;;;;;;5039191;28;20386;-94
2021/01/27 12:52:42;;;;;;;42.25;19.80;;;0.20;92.70;;;;;;5039004;28;20029;-93
2021/01/27 12:55:11;;;;;;;36.35;18.27;;;0.20;92.80;;;;;;5039214;28;20116;-94
2021/01/27 12:57:42;;;;;;;37.40;19.05;;;0.20;92.70;;;;;;5039284;28;20025;-94
2021/01/27 13:00:11;;;;;;;41.65;20.65;;;0.20;92.70;;;;;;5048080;28;20009;-94
2021/01/27 13:02:37;;;;;;;34.15;18.05;;;0.10;92.90;;;;;;5052586;28;20033;-93
2021/01/27 13:05:03;;;;;;;38.28;19.48;;;0.10;93.00;;;;;;5040538;28;20094;-93
2021/01/27 13:07:29;;;;;;;35.47;18.80;;;0.10;92.90;;;;;;5038549;28;20039;-93